sensor_id;sensor_type;location;lat;lon;timestamp;temperature;humidity
9103;DHT22;4587;51.434;6.788;2022-09-12T00:00:12;14.70;99.90
9103;DHT22;4587;51.434;6.788;2022-09-12T00:02:40;14.70;99.90
9103;DHT22;4587;51.434;6.788;2022-09-12T00:05:05;14.70;99.90
9103;DHT22;4587;51.434;6.788;2022-09-12T00:07:32;14.70;99.90
9103;DHT22;4587;51.434;6.788;2022-09-12T00:09:58;14.60;99.90
9103;DHT22;4587;51.434;6.788;2022-09-12T00:12:23;14.60;99.90
9103;DHT22;4587;51.434;6.788;2022-09-12T00:14:49;14.60;99.90
9103;DHT22;4587;51.434;6.788;2022-09-12T00:17:14;14.70;99.90
9103;DHT22;4587;51.434;6.788;2022-09-12T00:19:40;14.60;99.90
9103;DHT22;4587;51.434;6.788;2022-09-12T00:22:05;14.60;99.90
9103;DHT22;4587;51.434;6.788;2022-09-12T00:24:31;14.50;99.90
9103;DHT22;4587;51.434;6.788;2022-09-12T00:26:58;14.50;99.90
9103;DHT22;4587;51.434;6.788;2022-09-12T00:29:23;14.50;99.90
9103;DHT22;4587;51.434;6.788;2022-09-12T00:31:49;14.50;99.90
9103;DHT22;4587;51.434;6.788;2022-09-12T00:34:14;14.50;99.90
9103;DHT22;4587;51.434;6.788;2022-09-12T00:36:40;14.40;99.90
9103;DHT22;4587;51.434;6.788;2022-09-12T00:39:06;14.50;99.90
9103;DHT22;4587;51.434;6.788;2022-09-12T00:41:35;14.50;99.90
9103;DHT22;4587;51.434;6.788;2022-09-12T00:46:44;14.40;99.90
9103;DHT22;4587;51.434;6.788;2022-09-12T00:49:38;14.30;99.90
9103;DHT22;4587;51.434;6.788;2022-09-12T00:52:18;14.30;99.90
9103;DHT22;4587;51.434;6.788;2022-09-12T00:55:19;14.40;99.90
9103;DHT22;4587;51.434;6.788;2022-09-12T00:58:08;14.30;99.90
9103;DHT22;4587;51.434;6.788;2022-09-12T01:00:35;14.20;99.90
9103;DHT22;4587;51.434;6.788;2022-09-12T01:03:10;14.30;99.90
9103;DHT22;4587;51.434;6.788;2022-09-12T01:05:40;14.20;99.90
9103;DHT22;4587;51.434;6.788;2022-09-12T01:08:08;14.20;99.90
9103;DHT22;4587;51.434;6.788;2022-09-12T01:10:35;14.20;99.90
9103;DHT22;4587;51.434;6.788;2022-09-12T01:13:05;14.20;99.90
9103;DHT22;4587;51.434;6.788;2022-09-12T01:15:31;14.20;99.90
9103;DHT22;4587;51.434;6.788;2022-09-12T01:20:44;14.20;99.90
9103;DHT22;4587;51.434;6.788;2022-09-12T01:34:41;14.10;99.90
9103;DHT22;4587;51.434;6.788;2022-09-12T01:43:01;14.10;99.90
9103;DHT22;4587;51.434;6.788;2022-09-12T01:48:29;14.20;99.90
9103;DHT22;4587;51.434;6.788;2022-09-12T01:51:02;14.20;99.90
9103;DHT22;4587;51.434;6.788;2022-09-12T01:53:43;14.10;99.90
9103;DHT22;4587;51.434;6.788;2022-09-12T01:56:21;14.10;99.90
9103;DHT22;4587;51.434;6.788;2022-09-12T01:59:22;14.00;99.90
9103;DHT22;4587;51.434;6.788;2022-09-12T02:02:07;14.00;99.90
9103;DHT22;4587;51.434;6.788;2022-09-12T02:04:50;13.90;99.90
9103;DHT22;4587;51.434;6.788;2022-09-12T02:07:26;13.80;99.90
9103;DHT22;4587;51.434;6.788;2022-09-12T02:10:08;13.90;99.90
9103;DHT22;4587;51.434;6.788;2022-09-12T02:12:40;13.80;99.90
9103;DHT22;4587;51.434;6.788;2022-09-12T02:15:08;13.90;99.90
9103;DHT22;4587;51.434;6.788;2022-09-12T02:17:40;13.90;99.90
9103;DHT22;4587;51.434;6.788;2022-09-12T02:20:33;13.80;99.90
9103;DHT22;4587;51.434;6.788;2022-09-12T02:23:00;13.80;99.90
9103;DHT22;4587;51.434;6.788;2022-09-12T02:25:28;13.80;99.90
9103;DHT22;4587;51.434;6.788;2022-09-12T02:28:00;13.80;99.90
9103;DHT22;4587;51.434;6.788;2022-09-12T02:30:35;13.80;99.90
9103;DHT22;4587;51.434;6.788;2022-09-12T02:33:32;13.70;99.90
9103;DHT22;4587;51.434;6.788;2022-09-12T02:35:57;13.70;99.90
9103;DHT22;4587;51.434;6.788;2022-09-12T02:40:53;13.70;99.90
9103;DHT22;4587;51.434;6.788;2022-09-12T02:43:19;13.60;99.90
9103;DHT22;4587;51.434;6.788;2022-09-12T02:45:45;13.60;99.90
9103;DHT22;4587;51.434;6.788;2022-09-12T02:48:26;13.60;99.90
9103;DHT22;4587;51.434;6.788;2022-09-12T02:50:53;13.60;99.90
9103;DHT22;4587;51.434;6.788;2022-09-12T02:53:19;13.60;99.90
9103;DHT22;4587;51.434;6.788;2022-09-12T02:55:45;13.60;99.90
9103;DHT22;4587;51.434;6.788;2022-09-12T02:58:15;13.60;99.90
9103;DHT22;4587;51.434;6.788;2022-09-12T03:00:56;13.50;99.90
9103;DHT22;4587;51.434;6.788;2022-09-12T03:05:56;13.50;99.90
9103;DHT22;4587;51.434;6.788;2022-09-12T03:08:41;13.60;99.90
9103;DHT22;4587;51.434;6.788;2022-09-12T03:11:19;13.60;99.90
9103;DHT22;4587;51.434;6.788;2022-09-12T03:19:46;13.50;99.90
9103;DHT22;4587;51.434;6.788;2022-09-12T03:22:32;13.50;99.90
9103;DHT22;4587;51.434;6.788;2022-09-12T03:25:16;13.50;99.90
9103;DHT22;4587;51.434;6.788;2022-09-12T03:27:49;13.50;99.90
9103;DHT22;4587;51.434;6.788;2022-09-12T03:30:17;13.50;99.90
9103;DHT22;4587;51.434;6.788;2022-09-12T03:32:48;13.50;99.90
9103;DHT22;4587;51.434;6.788;2022-09-12T03:35:16;13.50;99.90
9103;DHT22;4587;51.434;6.788;2022-09-12T03:37:42;13.50;99.90
9103;DHT22;4587;51.434;6.788;2022-09-12T03:40:09;13.50;99.90
9103;DHT22;4587;51.434;6.788;2022-09-12T03:42:36;13.40;99.90
9103;DHT22;4587;51.434;6.788;2022-09-12T03:45:02;13.40;99.90
9103;DHT22;4587;51.434;6.788;2022-09-12T03:47:28;13.40;99.90
9103;DHT22;4587;51.434;6.788;2022-09-12T03:49:53;13.40;99.90
9103;DHT22;4587;51.434;6.788;2022-09-12T03:52:19;13.30;99.90
9103;DHT22;4587;51.434;6.788;2022-09-12T03:54:44;13.30;99.90
9103;DHT22;4587;51.434;6.788;2022-09-12T03:57:10;13.30;99.90
9103;DHT22;4587;51.434;6.788;2022-09-12T03:59:35;13.30;99.90
9103;DHT22;4587;51.434;6.788;2022-09-12T04:02:02;13.40;99.90
9103;DHT22;4587;51.434;6.788;2022-09-12T04:04:28;13.30;99.90
9103;DHT22;4587;51.434;6.788;2022-09-12T04:06:53;13.30;99.90
9103;DHT22;4587;51.434;6.788;2022-09-12T04:09:19;13.40;99.90
9103;DHT22;4587;51.434;6.788;2022-09-12T04:11:44;13.30;99.90
9103;DHT22;4587;51.434;6.788;2022-09-12T04:14:10;13.30;99.90
9103;DHT22;4587;51.434;6.788;2022-09-12T04:16:36;13.30;99.90
9103;DHT22;4587;51.434;6.788;2022-09-12T04:19:01;13.30;99.90
9103;DHT22;4587;51.434;6.788;2022-09-12T04:21:27;13.30;99.90
9103;DHT22;4587;51.434;6.788;2022-09-12T04:23:52;13.30;99.90
9103;DHT22;4587;51.434;6.788;2022-09-12T04:26:19;13.30;99.90
9103;DHT22;4587;51.434;6.788;2022-09-12T04:28:45;13.30;99.90
9103;DHT22;4587;51.434;6.788;2022-09-12T04:31:15;13.40;99.90
9103;DHT22;4587;51.434;6.788;2022-09-12T04:33:47;13.40;99.90
9103;DHT22;4587;51.434;6.788;2022-09-12T04:36:17;13.30;99.90
9103;DHT22;4587;51.434;6.788;2022-09-12T04:38:44;13.40;99.90
9103;DHT22;4587;51.434;6.788;2022-09-12T04:41:15;13.30;99.90
9103;DHT22;4587;51.434;6.788;2022-09-12T04:43:41;13.30;99.90
9103;DHT22;4587;51.434;6.788;2022-09-12T04:46:09;13.40;99.90
9103;DHT22;4587;51.434;6.788;2022-09-12T04:48:36;13.40;99.90
9103;DHT22;4587;51.434;6.788;2022-09-12T04:51:09;13.40;99.90
9103;DHT22;4587;51.434;6.788;2022-09-12T04:53:35;13.40;99.90
9103;DHT22;4587;51.434;6.788;2022-09-12T04:56:04;13.40;99.90
9103;DHT22;4587;51.434;6.788;2022-09-12T04:58:31;13.40;99.90
9103;DHT22;4587;51.434;6.788;2022-09-12T05:01:08;13.50;99.90
9103;DHT22;4587;51.434;6.788;2022-09-12T05:03:34;13.50;99.90
9103;DHT22;4587;51.434;6.788;2022-09-12T05:06:04;13.50;99.90
9103;DHT22;4587;51.434;6.788;2022-09-12T05:08:30;13.50;99.90
9103;DHT22;4587;51.434;6.788;2022-09-12T05:10:55;13.50;99.90
9103;DHT22;4587;51.434;6.788;2022-09-12T05:13:21;13.60;99.90
9103;DHT22;4587;51.434;6.788;2022-09-12T05:15:57;13.60;99.90
9103;DHT22;4587;51.434;6.788;2022-09-12T05:18:23;13.60;99.90
9103;DHT22;4587;51.434;6.788;2022-09-12T05:20:48;13.70;99.90
9103;DHT22;4587;51.434;6.788;2022-09-12T05:23:14;13.70;99.90
9103;DHT22;4587;51.434;6.788;2022-09-12T05:25:47;13.80;99.90
9103;DHT22;4587;51.434;6.788;2022-09-12T05:28:13;13.90;99.90
9103;DHT22;4587;51.434;6.788;2022-09-12T05:30:39;13.90;99.90
9103;DHT22;4587;51.434;6.788;2022-09-12T05:33:04;14.00;99.90
9103;DHT22;4587;51.434;6.788;2022-09-12T05:35:30;14.10;99.90
9103;DHT22;4587;51.434;6.788;2022-09-12T05:37:57;14.20;99.90
9103;DHT22;4587;51.434;6.788;2022-09-12T05:40:23;14.30;99.90
9103;DHT22;4587;51.434;6.788;2022-09-12T05:42:48;14.40;99.90
9103;DHT22;4587;51.434;6.788;2022-09-12T05:45:14;14.50;99.90
9103;DHT22;4587;51.434;6.788;2022-09-12T05:47:39;14.60;99.90
9103;DHT22;4587;51.434;6.788;2022-09-12T05:50:06;14.60;99.90
9103;DHT22;4587;51.434;6.788;2022-09-12T05:52:35;14.80;99.90
9103;DHT22;4587;51.434;6.788;2022-09-12T05:55:01;14.90;99.90
9103;DHT22;4587;51.434;6.788;2022-09-12T05:57:27;15.00;99.90
9103;DHT22;4587;51.434;6.788;2022-09-12T05:59:53;15.10;99.90
9103;DHT22;4587;51.434;6.788;2022-09-12T06:02:19;15.20;99.90
9103;DHT22;4587;51.434;6.788;2022-09-12T06:04:45;15.20;99.90
9103;DHT22;4587;51.434;6.788;2022-09-12T06:07:11;15.30;99.90
9103;DHT22;4587;51.434;6.788;2022-09-12T06:12:42;15.60;99.90
9103;DHT22;4587;51.434;6.788;2022-09-12T06:15:08;15.60;99.90
9103;DHT22;4587;51.434;6.788;2022-09-12T06:17:34;15.70;99.90
9103;DHT22;4587;51.434;6.788;2022-09-12T06:19:59;15.70;99.90
9103;DHT22;4587;51.434;6.788;2022-09-12T06:22:26;15.80;99.90
9103;DHT22;4587;51.434;6.788;2022-09-12T06:24:51;15.90;99.90
9103;DHT22;4587;51.434;6.788;2022-09-12T06:27:17;16.00;99.90
9103;DHT22;4587;51.434;6.788;2022-09-12T06:29:43;16.20;99.90
9103;DHT22;4587;51.434;6.788;2022-09-12T06:35:30;16.50;99.90
9103;DHT22;4587;51.434;6.788;2022-09-12T06:37:59;16.60;99.90
9103;DHT22;4587;51.434;6.788;2022-09-12T06:40:25;16.70;99.90
9103;DHT22;4587;51.434;6.788;2022-09-12T06:42:51;16.90;99.90
9103;DHT22;4587;51.434;6.788;2022-09-12T06:45:17;17.10;99.90
9103;DHT22;4587;51.434;6.788;2022-09-12T06:47:44;17.50;99.90
9103;DHT22;4587;51.434;6.788;2022-09-12T06:50:09;18.00;99.90
9103;DHT22;4587;51.434;6.788;2022-09-12T06:52:35;18.30;99.90
9103;DHT22;4587;51.434;6.788;2022-09-12T06:55:01;18.50;99.90
9103;DHT22;4587;51.434;6.788;2022-09-12T06:57:26;18.70;99.90
9103;DHT22;4587;51.434;6.788;2022-09-12T06:59:54;18.80;99.90
9103;DHT22;4587;51.434;6.788;2022-09-12T07:02:20;18.90;99.90
9103;DHT22;4587;51.434;6.788;2022-09-12T07:04:46;19.00;99.90
9103;DHT22;4587;51.434;6.788;2022-09-12T07:07:11;19.00;99.90
9103;DHT22;4587;51.434;6.788;2022-09-12T07:09:37;18.90;99.90
9103;DHT22;4587;51.434;6.788;2022-09-12T07:12:02;18.90;99.90
9103;DHT22;4587;51.434;6.788;2022-09-12T07:14:29;18.90;99.90
9103;DHT22;4587;51.434;6.788;2022-09-12T07:16:54;18.80;99.90
9103;DHT22;4587;51.434;6.788;2022-09-12T07:19:20;18.80;99.90
9103;DHT22;4587;51.434;6.788;2022-09-12T07:21:45;18.80;99.90
9103;DHT22;4587;51.434;6.788;2022-09-12T07:24:11;18.80;99.90
9103;DHT22;4587;51.434;6.788;2022-09-12T07:26:38;18.80;99.90
9103;DHT22;4587;51.434;6.788;2022-09-12T07:29:04;18.80;99.90
9103;DHT22;4587;51.434;6.788;2022-09-12T07:31:29;18.80;99.90
9103;DHT22;4587;51.434;6.788;2022-09-12T07:33:55;18.60;99.90
9103;DHT22;4587;51.434;6.788;2022-09-12T07:36:23;18.50;99.90
9103;DHT22;4587;51.434;6.788;2022-09-12T07:38:54;18.50;99.90
9103;DHT22;4587;51.434;6.788;2022-09-12T07:41:22;18.40;99.90
9103;DHT22;4587;51.434;6.788;2022-09-12T07:43:52;18.40;99.90
9103;DHT22;4587;51.434;6.788;2022-09-12T07:46:19;18.50;99.90
9103;DHT22;4587;51.434;6.788;2022-09-12T07:48:49;18.50;99.90
9103;DHT22;4587;51.434;6.788;2022-09-12T07:51:15;18.60;99.90
9103;DHT22;4587;51.434;6.788;2022-09-12T07:53:41;18.60;99.90
9103;DHT22;4587;51.434;6.788;2022-09-12T07:56:09;18.60;99.90
9103;DHT22;4587;51.434;6.788;2022-09-12T07:58:35;18.70;99.90
9103;DHT22;4587;51.434;6.788;2022-09-12T08:01:05;18.80;99.90
9103;DHT22;4587;51.434;6.788;2022-09-12T08:03:33;18.80;99.90
9103;DHT22;4587;51.434;6.788;2022-09-12T08:06:07;18.90;99.90
9103;DHT22;4587;51.434;6.788;2022-09-12T08:08:34;19.00;99.90
9103;DHT22;4587;51.434;6.788;2022-09-12T08:11:01;19.10;99.90
9103;DHT22;4587;51.434;6.788;2022-09-12T08:13:28;19.20;99.90
9103;DHT22;4587;51.434;6.788;2022-09-12T08:16:05;19.40;99.90
9103;DHT22;4587;51.434;6.788;2022-09-12T08:18:31;19.80;99.90
9103;DHT22;4587;51.434;6.788;2022-09-12T08:21:05;20.60;99.90
9103;DHT22;4587;51.434;6.788;2022-09-12T08:23:32;21.00;99.90
9103;DHT22;4587;51.434;6.788;2022-09-12T08:26:02;21.00;99.90
9103;DHT22;4587;51.434;6.788;2022-09-12T08:28:29;20.90;99.90
9103;DHT22;4587;51.434;6.788;2022-09-12T08:31:03;20.90;99.90
9103;DHT22;4587;51.434;6.788;2022-09-12T08:33:30;20.80;99.90
9103;DHT22;4587;51.434;6.788;2022-09-12T08:36:13;20.80;99.90
9103;DHT22;4587;51.434;6.788;2022-09-12T08:38:41;20.90;99.90
9103;DHT22;4587;51.434;6.788;2022-09-12T08:49:04;21.00;99.90
9103;DHT22;4587;51.434;6.788;2022-09-12T08:51:33;21.00;99.90
9103;DHT22;4587;51.434;6.788;2022-09-12T08:54:01;21.00;99.90
9103;DHT22;4587;51.434;6.788;2022-09-12T08:56:28;21.10;99.90
9103;DHT22;4587;51.434;6.788;2022-09-12T08:58:56;21.20;99.90
9103;DHT22;4587;51.434;6.788;2022-09-12T09:01:39;21.30;99.90
9103;DHT22;4587;51.434;6.788;2022-09-12T09:10:04;21.60;99.90
9103;DHT22;4587;51.434;6.788;2022-09-12T09:12:53;21.60;99.90
9103;DHT22;4587;51.434;6.788;2022-09-12T09:18:22;21.90;99.90
9103;DHT22;4587;51.434;6.788;2022-09-12T09:20:55;22.10;99.90
9103;DHT22;4587;51.434;6.788;2022-09-12T09:23:27;22.20;99.90
9103;DHT22;4587;51.434;6.788;2022-09-12T09:26:15;22.20;99.90
9103;DHT22;4587;51.434;6.788;2022-09-12T09:28:45;22.40;99.90
9103;DHT22;4587;51.434;6.788;2022-09-12T09:31:15;22.40;99.90
9103;DHT22;4587;51.434;6.788;2022-09-12T09:33:41;22.50;99.90
9103;DHT22;4587;51.434;6.788;2022-09-12T09:39:03;22.40;99.90
9103;DHT22;4587;51.434;6.788;2022-09-12T09:41:40;22.30;99.90
9103;DHT22;4587;51.434;6.788;2022-09-12T09:44:06;22.40;99.90
9103;DHT22;4587;51.434;6.788;2022-09-12T09:46:32;22.40;99.90
9103;DHT22;4587;51.434;6.788;2022-09-12T09:48:59;22.50;99.90
9103;DHT22;4587;51.434;6.788;2022-09-12T09:51:35;22.60;99.90
9103;DHT22;4587;51.434;6.788;2022-09-12T09:56:40;22.60;99.90
9103;DHT22;4587;51.434;6.788;2022-09-12T10:01:50;22.60;99.90
9103;DHT22;4587;51.434;6.788;2022-09-12T10:04:29;22.70;99.90
9103;DHT22;4587;51.434;6.788;2022-09-12T10:06:59;22.70;99.90
9103;DHT22;4587;51.434;6.788;2022-09-12T10:09:30;22.80;99.90
9103;DHT22;4587;51.434;6.788;2022-09-12T10:12:00;22.90;99.90
9103;DHT22;4587;51.434;6.788;2022-09-12T10:14:43;22.80;99.90
9103;DHT22;4587;51.434;6.788;2022-09-12T10:17:29;22.90;99.90
9103;DHT22;4587;51.434;6.788;2022-09-12T10:19:56;22.80;99.90
9103;DHT22;4587;51.434;6.788;2022-09-12T10:22:24;22.80;99.90
9103;DHT22;4587;51.434;6.788;2022-09-12T10:24:52;22.70;99.90
9103;DHT22;4587;51.434;6.788;2022-09-12T10:27:21;22.70;99.90
9103;DHT22;4587;51.434;6.788;2022-09-12T10:29:48;22.80;99.90
9103;DHT22;4587;51.434;6.788;2022-09-12T10:32:33;22.80;99.90
9103;DHT22;4587;51.434;6.788;2022-09-12T10:35:18;22.90;99.90
9103;DHT22;4587;51.434;6.788;2022-09-12T10:37:54;23.00;99.90
9103;DHT22;4587;51.434;6.788;2022-09-12T10:40:26;23.00;99.90
9103;DHT22;4587;51.434;6.788;2022-09-12T10:42:55;23.00;99.90
9103;DHT22;4587;51.434;6.788;2022-09-12T10:45:31;23.00;99.90
9103;DHT22;4587;51.434;6.788;2022-09-12T10:48:02;23.00;99.90
9103;DHT22;4587;51.434;6.788;2022-09-12T10:50:33;23.10;99.90
9103;DHT22;4587;51.434;6.788;2022-09-12T10:53:21;23.00;99.90
9103;DHT22;4587;51.434;6.788;2022-09-12T11:01:04;23.10;99.90
9103;DHT22;4587;51.434;6.788;2022-09-12T11:06:09;23.10;99.90
9103;DHT22;4587;51.434;6.788;2022-09-12T11:08:48;23.20;99.90
9103;DHT22;4587;51.434;6.788;2022-09-12T11:14:24;23.20;99.90
9103;DHT22;4587;51.434;6.788;2022-09-12T11:17:01;23.30;99.90
9103;DHT22;4587;51.434;6.788;2022-09-12T11:19:53;23.30;99.90
9103;DHT22;4587;51.434;6.788;2022-09-12T11:30:30;23.40;99.90
9103;DHT22;4587;51.434;6.788;2022-09-12T11:35:34;23.40;99.90
9103;DHT22;4587;51.434;6.788;2022-09-12T11:40:53;23.50;99.90
9103;DHT22;4587;51.434;6.788;2022-09-12T11:45:52;23.50;99.90
9103;DHT22;4587;51.434;6.788;2022-09-12T11:48:46;23.40;99.90
9103;DHT22;4587;51.434;6.788;2022-09-12T11:51:18;23.50;99.90
9103;DHT22;4587;51.434;6.788;2022-09-12T11:53:56;23.50;99.90
9103;DHT22;4587;51.434;6.788;2022-09-12T11:56:24;23.50;99.90
9103;DHT22;4587;51.434;6.788;2022-09-12T11:58:58;23.50;99.90
9103;DHT22;4587;51.434;6.788;2022-09-12T12:01:30;23.70;99.90
9103;DHT22;4587;51.434;6.788;2022-09-12T12:04:00;23.70;99.90
9103;DHT22;4587;51.434;6.788;2022-09-12T12:06:35;23.70;99.90
9103;DHT22;4587;51.434;6.788;2022-09-12T12:09:04;23.80;99.90
9103;DHT22;4587;51.434;6.788;2022-09-12T12:11:35;23.70;99.90
9103;DHT22;4587;51.434;6.788;2022-09-12T12:17:18;23.80;99.90
9103;DHT22;4587;51.434;6.788;2022-09-12T12:19:46;23.80;99.90
9103;DHT22;4587;51.434;6.788;2022-09-12T12:22:23;23.90;99.90
9103;DHT22;4587;51.434;6.788;2022-09-12T12:25:21;23.90;99.90
9103;DHT22;4587;51.434;6.788;2022-09-12T12:27:56;24.00;99.90
9103;DHT22;4587;51.434;6.788;2022-09-12T12:33:06;24.10;99.90
9103;DHT22;4587;51.434;6.788;2022-09-12T12:38:39;24.00;99.90
9103;DHT22;4587;51.434;6.788;2022-09-12T12:43:50;24.10;99.90
9103;DHT22;4587;51.434;6.788;2022-09-12T12:46:26;24.10;99.90
9103;DHT22;4587;51.434;6.788;2022-09-12T12:53:56;24.20;99.90
9103;DHT22;4587;51.434;6.788;2022-09-12T12:59:02;24.20;99.90
9103;DHT22;4587;51.434;6.788;2022-09-12T13:01:30;24.20;99.90
9103;DHT22;4587;51.434;6.788;2022-09-12T13:04:10;24.10;99.90
9103;DHT22;4587;51.434;6.788;2022-09-12T13:06:39;24.10;99.90
9103;DHT22;4587;51.434;6.788;2022-09-12T13:12:04;24.20;99.90
9103;DHT22;4587;51.434;6.788;2022-09-12T13:22:45;24.10;99.90
9103;DHT22;4587;51.434;6.788;2022-09-12T13:30:41;24.20;99.90
9103;DHT22;4587;51.434;6.788;2022-09-12T13:33:17;24.30;99.90
9103;DHT22;4587;51.434;6.788;2022-09-12T13:35:58;24.20;99.90
9103;DHT22;4587;51.434;6.788;2022-09-12T13:43:49;24.20;99.90
9103;DHT22;4587;51.434;6.788;2022-09-12T13:46:21;24.20;99.90
9103;DHT22;4587;51.434;6.788;2022-09-12T13:48:50;24.20;99.90
9103;DHT22;4587;51.434;6.788;2022-09-12T13:51:21;24.30;99.90
9103;DHT22;4587;51.434;6.788;2022-09-12T13:53:48;24.30;99.90
9103;DHT22;4587;51.434;6.788;2022-09-12T13:56:16;24.20;99.90
9103;DHT22;4587;51.434;6.788;2022-09-12T14:01:18;24.40;99.90
9103;DHT22;4587;51.434;6.788;2022-09-12T14:06:54;24.40;99.90
9103;DHT22;4587;51.434;6.788;2022-09-12T14:09:41;24.50;99.90
9103;DHT22;4587;51.434;6.788;2022-09-12T14:12:29;24.60;99.90
9103;DHT22;4587;51.434;6.788;2022-09-12T14:14:57;24.60;99.90
9103;DHT22;4587;51.434;6.788;2022-09-12T14:17:35;24.60;99.90
9103;DHT22;4587;51.434;6.788;2022-09-12T14:20:05;24.60;99.90
9103;DHT22;4587;51.434;6.788;2022-09-12T14:22:32;24.70;99.90
9103;DHT22;4587;51.434;6.788;2022-09-12T14:24:59;24.70;99.90
9103;DHT22;4587;51.434;6.788;2022-09-12T14:27:43;24.70;99.90
9103;DHT22;4587;51.434;6.788;2022-09-12T14:31:04;24.60;99.90
9103;DHT22;4587;51.434;6.788;2022-09-12T14:38:56;24.70;99.90
9103;DHT22;4587;51.434;6.788;2022-09-12T14:41:27;24.80;99.90
9103;DHT22;4587;51.434;6.788;2022-09-12T14:43:57;24.70;99.90
9103;DHT22;4587;51.434;6.788;2022-09-12T14:46:32;24.70;99.90
9103;DHT22;4587;51.434;6.788;2022-09-12T14:57:27;24.50;99.90
9103;DHT22;4587;51.434;6.788;2022-09-12T15:00:15;24.50;99.90
9103;DHT22;4587;51.434;6.788;2022-09-12T15:02:43;24.50;99.90
9103;DHT22;4587;51.434;6.788;2022-09-12T15:12:46;24.50;99.50
9103;DHT22;4587;51.434;6.788;2022-09-12T15:15:19;24.50;99.90
9103;DHT22;4587;51.434;6.788;2022-09-12T15:17:45;24.50;99.80
9103;DHT22;4587;51.434;6.788;2022-09-12T15:20:12;24.40;99.60
9103;DHT22;4587;51.434;6.788;2022-09-12T15:22:38;24.40;99.40
9103;DHT22;4587;51.434;6.788;2022-09-12T15:25:05;24.40;99.90
9103;DHT22;4587;51.434;6.788;2022-09-12T15:27:31;24.40;99.90
9103;DHT22;4587;51.434;6.788;2022-09-12T15:29:57;24.30;99.90
9103;DHT22;4587;51.434;6.788;2022-09-12T15:32:27;24.30;99.90
9103;DHT22;4587;51.434;6.788;2022-09-12T15:34:53;24.20;99.90
9103;DHT22;4587;51.434;6.788;2022-09-12T15:37:21;24.20;99.90
9103;DHT22;4587;51.434;6.788;2022-09-12T15:39:48;24.30;99.90
9103;DHT22;4587;51.434;6.788;2022-09-12T15:42:15;24.30;99.90
9103;DHT22;4587;51.434;6.788;2022-09-12T15:44:41;24.30;99.90
9103;DHT22;4587;51.434;6.788;2022-09-12T15:47:11;24.30;99.90
9103;DHT22;4587;51.434;6.788;2022-09-12T15:49:38;24.30;99.90
9103;DHT22;4587;51.434;6.788;2022-09-12T15:52:05;24.20;99.90
9103;DHT22;4587;51.434;6.788;2022-09-12T15:54:30;24.20;99.90
9103;DHT22;4587;51.434;6.788;2022-09-12T15:56:56;24.20;99.90
9103;DHT22;4587;51.434;6.788;2022-09-12T15:59:21;24.10;99.90
9103;DHT22;4587;51.434;6.788;2022-09-12T16:01:49;24.00;99.90
9103;DHT22;4587;51.434;6.788;2022-09-12T16:04:22;24.00;99.90
9103;DHT22;4587;51.434;6.788;2022-09-12T16:06:48;24.00;99.90
9103;DHT22;4587;51.434;6.788;2022-09-12T16:09:14;23.90;99.90
9103;DHT22;4587;51.434;6.788;2022-09-12T16:11:40;23.80;99.90
9103;DHT22;4587;51.434;6.788;2022-09-12T16:14:06;23.80;99.90
9103;DHT22;4587;51.434;6.788;2022-09-12T16:16:32;23.80;99.90
9103;DHT22;4587;51.434;6.788;2022-09-12T16:18:58;23.80;99.90
9103;DHT22;4587;51.434;6.788;2022-09-12T16:21:26;23.90;99.90
9103;DHT22;4587;51.434;6.788;2022-09-12T16:23:51;23.80;99.90
9103;DHT22;4587;51.434;6.788;2022-09-12T16:26:17;23.80;99.90
9103;DHT22;4587;51.434;6.788;2022-09-12T16:28:43;23.80;99.90
9103;DHT22;4587;51.434;6.788;2022-09-12T16:31:12;23.90;99.90
9103;DHT22;4587;51.434;6.788;2022-09-12T16:33:38;23.90;99.90
9103;DHT22;4587;51.434;6.788;2022-09-12T16:36:10;23.90;99.90
9103;DHT22;4587;51.434;6.788;2022-09-12T16:38:54;23.90;99.90
9103;DHT22;4587;51.434;6.788;2022-09-12T16:41:21;23.90;99.90
9103;DHT22;4587;51.434;6.788;2022-09-12T16:43:48;23.80;99.90
9103;DHT22;4587;51.434;6.788;2022-09-12T16:46:16;23.80;99.90
9103;DHT22;4587;51.434;6.788;2022-09-12T16:48:48;23.90;99.90
9103;DHT22;4587;51.434;6.788;2022-09-12T16:51:15;23.80;99.90
9103;DHT22;4587;51.434;6.788;2022-09-12T16:53:41;23.80;99.90
9103;DHT22;4587;51.434;6.788;2022-09-12T16:56:08;23.80;99.90
9103;DHT22;4587;51.434;6.788;2022-09-12T16:58:35;23.80;99.90
9103;DHT22;4587;51.434;6.788;2022-09-12T17:01:04;23.80;99.90
9103;DHT22;4587;51.434;6.788;2022-09-12T17:03:30;23.70;99.90
9103;DHT22;4587;51.434;6.788;2022-09-12T17:06:04;23.70;99.90
9103;DHT22;4587;51.434;6.788;2022-09-12T17:08:33;23.70;99.90
9103;DHT22;4587;51.434;6.788;2022-09-12T17:11:01;23.70;99.90
9103;DHT22;4587;51.434;6.788;2022-09-12T17:13:27;23.60;99.90
9103;DHT22;4587;51.434;6.788;2022-09-12T17:15:53;23.60;99.90
9103;DHT22;4587;51.434;6.788;2022-09-12T17:18:18;23.50;99.90
9103;DHT22;4587;51.434;6.788;2022-09-12T17:20:44;23.40;99.90
9103;DHT22;4587;51.434;6.788;2022-09-12T17:23:10;23.40;99.90
9103;DHT22;4587;51.434;6.788;2022-09-12T17:25:35;23.30;99.90
9103;DHT22;4587;51.434;6.788;2022-09-12T17:28:01;23.20;99.90
9103;DHT22;4587;51.434;6.788;2022-09-12T17:30:33;23.10;99.90
9103;DHT22;4587;51.434;6.788;2022-09-12T17:32:59;23.00;99.90
9103;DHT22;4587;51.434;6.788;2022-09-12T17:35:25;22.90;99.90
9103;DHT22;4587;51.434;6.788;2022-09-12T17:37:51;22.80;99.90
9103;DHT22;4587;51.434;6.788;2022-09-12T17:40:17;22.70;99.90
9103;DHT22;4587;51.434;6.788;2022-09-12T17:42:42;22.60;99.90
9103;DHT22;4587;51.434;6.788;2022-09-12T17:45:10;22.50;99.90
9103;DHT22;4587;51.434;6.788;2022-09-12T17:47:39;22.40;99.90
9103;DHT22;4587;51.434;6.788;2022-09-12T17:50:05;22.40;99.90
9103;DHT22;4587;51.434;6.788;2022-09-12T17:52:31;22.30;99.90
9103;DHT22;4587;51.434;6.788;2022-09-12T17:54:57;22.20;99.90
9103;DHT22;4587;51.434;6.788;2022-09-12T17:57:23;22.10;99.90
9103;DHT22;4587;51.434;6.788;2022-09-12T17:59:48;21.90;99.90
9103;DHT22;4587;51.434;6.788;2022-09-12T18:02:14;21.90;99.90
9103;DHT22;4587;51.434;6.788;2022-09-12T18:04:42;21.80;99.90
9103;DHT22;4587;51.434;6.788;2022-09-12T18:07:14;21.80;99.90
9103;DHT22;4587;51.434;6.788;2022-09-12T18:09:40;21.70;99.90
9103;DHT22;4587;51.434;6.788;2022-09-12T18:12:07;21.60;99.90
9103;DHT22;4587;51.434;6.788;2022-09-12T18:14:33;21.60;99.90
9103;DHT22;4587;51.434;6.788;2022-09-12T18:16:59;21.50;99.90
9103;DHT22;4587;51.434;6.788;2022-09-12T18:19:25;21.40;99.90
9103;DHT22;4587;51.434;6.788;2022-09-12T18:21:53;21.30;99.90
9103;DHT22;4587;51.434;6.788;2022-09-12T18:24:19;21.20;99.90
9103;DHT22;4587;51.434;6.788;2022-09-12T18:26:45;21.10;99.90
9103;DHT22;4587;51.434;6.788;2022-09-12T18:29:11;21.10;99.90
9103;DHT22;4587;51.434;6.788;2022-09-12T18:31:37;21.00;99.90
9103;DHT22;4587;51.434;6.788;2022-09-12T18:34:02;20.90;99.90
9103;DHT22;4587;51.434;6.788;2022-09-12T18:36:30;20.90;99.90
9103;DHT22;4587;51.434;6.788;2022-09-12T18:38:56;20.90;99.90
9103;DHT22;4587;51.434;6.788;2022-09-12T18:41:23;20.80;99.90
9103;DHT22;4587;51.434;6.788;2022-09-12T18:43:57;20.70;99.90
9103;DHT22;4587;51.434;6.788;2022-09-12T18:46:23;20.70;99.90
9103;DHT22;4587;51.434;6.788;2022-09-12T18:48:49;20.60;99.90
9103;DHT22;4587;51.434;6.788;2022-09-12T18:51:18;20.60;99.90
9103;DHT22;4587;51.434;6.788;2022-09-12T18:53:55;20.50;99.90
9103;DHT22;4587;51.434;6.788;2022-09-12T18:56:22;20.50;99.90
9103;DHT22;4587;51.434;6.788;2022-09-12T18:58:55;20.40;99.90
9103;DHT22;4587;51.434;6.788;2022-09-12T19:01:22;20.40;99.90